Time;durP1;ratioP1;P1;durP2;ratioP2;P2;SDS_P1;SDS_P2;PMS_P1;PMS_P2;Temp;Humidity;BMP_temperature;BMP_pressure;BME280_temperature;BME280_humidity;BME280_pressure;Samples;Min_cycle;Max_cycle;Signal;HPM_P1;HPM_P2
2022/10/14 00:01:22;;;;;;;29.95;18.98;;;;;;;22.34;45.03;101591.13;5079155;28;20047;-77
2022/10/14 00:03:48;;;;;;;28.95;17.27;;;;;;;22.09;45.14;101589.59;5094348;28;20479;-77
2022/10/14 00:06:20;;;;;;;28.55;18.63;;;;;;;22.52;44.74;101587.56;5094507;28;20082;-77
2022/10/14 00:08:49;;;;;;;30.83;19.08;;;;;;;22.08;45.66;101582.53;5093457;28;20028;-77
2022/10/14 00:11:28;;;;;;;28.35;18.38;;;;;;;22.31;45.25;101583.22;5093727;28;20024;-78
2022/10/14 00:14:03;;;;;;;27.25;17.98;;;;;;;22.34;45.11;101583.13;5094042;28;20066;-77
2022/10/14 00:16:34;;;;;;;29.13;18.02;;;;;;;22.53;44.54;101581.28;5093939;28;20115;-77
2022/10/14 00:19:00;;;;;;;25.35;16.92;;;;;;;22.82;43.76;101578.13;5094877;28;20100;-77
2022/10/14 00:21:27;;;;;;;25.40;16.33;;;;;;;22.85;43.45;101573.50;5092689;28;20061;-77
2022/10/14 00:23:53;;;;;;;24.65;15.23;;;;;;;22.70;43.95;101563.63;5093764;28;20039;-77
2022/10/14 00:26:18;;;;;;;21.63;15.30;;;;;;;22.53;44.97;101551.13;5093796;28;20023;-77
2022/10/14 00:28:44;;;;;;;25.13;16.67;;;;;;;22.51;44.37;101543.19;5092188;28;20060;-77
2022/10/14 00:31:09;;;;;;;25.65;16.15;;;;;;;22.66;44.25;101538.91;5092859;28;20085;-78
2022/10/14 00:33:35;;;;;;;27.33;18.02;;;;;;;22.83;44.08;101535.44;5092103;28;20107;-78
2022/10/14 00:36:02;;;;;;;30.98;18.77;;;;;;;22.99;43.94;101534.63;5093473;28;20122;-78
2022/10/14 00:38:28;;;;;;;30.83;19.50;;;;;;;22.08;45.68;101529.28;5093241;28;20028;-77
2022/10/14 00:40:54;;;;;;;36.45;20.10;;;;;;;21.50;47.10;101520.38;5091967;28;20549;-77
2022/10/14 00:43:21;;;;;;;29.80;20.02;;;;;;;22.10;45.67;101510.56;5093290;28;20031;-77
2022/10/14 00:45:47;;;;;;;31.60;20.38;;;;;;;21.85;46.01;101501.94;5094331;28;20020;-77
2022/10/14 00:48:13;;;;;;;33.50;19.70;;;;;;;22.39;44.71;101503.84;5092298;28;20035;-77
2022/10/14 00:50:43;;;;;;;33.55;20.90;;;;;;;21.99;46.09;101508.41;5092895;28;20061;-78
2022/10/14 00:53:11;;;;;;;36.00;22.40;;;;;;;22.06;46.55;101506.34;5093779;28;20044;-78
2022/10/14 00:55:38;;;;;;;34.13;21.80;;;;;;;21.77;47.01;101513.88;5093958;28;20111;-78
2022/10/14 00:58:04;;;;;;;34.22;21.80;;;;;;;21.99;46.70;101517.25;5092832;28;20404;-78
2022/10/14 01:00:29;;;;;;;42.13;25.92;;;;;;;22.11;46.90;101518.47;5093151;28;20024;-77
2022/10/14 01:02:56;;;;;;;37.40;23.27;;;;;;;22.48;46.31;101511.41;5092399;28;20438;-77
2022/10/14 01:05:21;;;;;;;39.83;24.38;;;;;;;21.68;47.78;101515.19;5092772;28;20028;-77
2022/10/14 01:08:18;;;;;;;39.95;24.02;;;;;;;21.99;47.59;101505.75;5093484;28;20031;-77
2022/10/14 01:10:54;;;;;;;40.58;23.58;;;;;;;21.99;47.69;101508.41;5061976;28;20033;-78
2022/10/14 01:13:34;;;;;;;35.80;23.77;;;;;;;22.24;47.29;101497.44;5074332;28;20020;-78
2022/10/14 01:16:20;;;;;;;38.53;25.20;;;;;;;22.32;47.11;101499.75;5089616;28;20070;-77
2022/10/14 01:19:15;;;;;;;36.75;23.65;;;;;;;22.32;47.07;101494.41;5091955;28;20391;-78
2022/10/14 01:21:44;;;;;;;37.13;23.92;;;;;;;22.57;46.35;101498.56;5094126;28;20476;-78
2022/10/14 01:24:37;;;;;;;39.25;25.13;;;;;;;22.91;46.10;101512.84;5092428;28;20024;-78
2022/10/14 01:27:16;;;;;;;36.95;23.38;;;;;;;23.34;45.24;101507.94;5092716;28;20035;-78
2022/10/14 01:30:01;;;;;;;38.05;24.17;;;;;;;23.20;45.30;101509.56;5090865;28;20063;-78
2022/10/14 01:32:35;;;;;;;32.33;22.30;;;;;;;23.18;45.29;101505.25;5092349;28;20040;-77
2022/10/14 01:35:33;;;;;;;33.53;22.23;;;;;;;23.26;45.40;101496.84;5092464;28;20016;-78
2022/10/14 01:38:09;;;;;;;37.28;23.45;;;;;;;23.11;45.80;101510.00;5088259;28;20062;-78
2022/10/14 01:40:45;;;;;;;32.55;21.35;;;;;;;22.83;46.34;101508.78;5092008;28;20067;-78
2022/10/14 01:43:12;;;;;;;35.00;21.88;;;;;;;23.64;44.64;101501.91;5093612;28;20054;-77
2022/10/14 01:45:40;;;;;;;31.98;21.38;;;;;;;23.75;44.67;101490.66;5090030;28;20036;-77
2022/10/14 01:48:07;;;;;;;37.45;22.83;;;;;;;23.60;44.88;101485.19;5086157;28;20031;-78
2022/10/14 01:50:36;;;;;;;37.45;22.55;;;;;;;23.69;44.50;101478.53;5080351;28;20074;-77
2022/10/14 01:53:10;;;;;;;36.13;22.15;;;;;;;23.46;44.45;101483.28;5072443;28;20118;-77
2022/10/14 01:55:41;;;;;;;35.03;21.15;;;;;;;23.67;44.69;101475.06;5088870;28;20388;-77
2022/10/14 01:58:08;;;;;;;34.53;21.83;;;;;;;23.40;45.46;101486.31;5071471;28;20052;-77
2022/10/14 02:00:34;;;;;;;36.58;23.17;;;;;;;23.68;44.50;101466.97;5091019;28;20499;-77
2022/10/14 02:02:59;;;;;;;38.92;24.70;;;;;;;23.11;45.61;101467.34;5092620;28;20043;-77
2022/10/14 02:05:35;;;;;;;38.60;24.77;;;;;;;23.47;44.83;101462.84;5091284;28;20028;-77
2022/10/14 02:08:19;;;;;;;41.63;23.95;;;;;;;23.47;45.17;101463.69;5108668;27;20059;-77
2022/10/14 02:10:59;;;;;;;40.45;24.92;;;;;;;23.63;44.68;101462.81;5091575;28;20116;-78
2022/10/14 02:13:34;;;;;;;41.20;23.73;;;;;;;23.80;44.98;101470.78;5090543;28;20039;-77
2022/10/14 02:16:13;;;;;;;40.90;24.55;;;;;;;23.40;45.30;101451.63;5090904;28;20026;-77
2022/10/14 02:18:55;;;;;;;40.88;24.75;;;;;;;23.66;44.62;101458.19;5090203;28;20066;-77
2022/10/14 02:21:31;;;;;;;46.10;26.48;;;;;;;23.52;45.48;101466.09;5091235;28;20024;-77
2022/10/14 02:24:03;;;;;;;45.70;26.98;;;;;;;23.61;45.20;101460.25;5091873;28;20519;-77
2022/10/14 02:26:32;;;;;;;47.97;26.77;;;;;;;23.66;45.36;101460.03;5089383;28;20079;-77
2022/10/14 02:29:00;;;;;;;52.88;27.30;;;;;;;23.71;45.26;101466.81;5091288;28;20032;-77
2022/10/14 02:31:27;;;;;;;47.35;27.88;;;;;;;23.76;45.47;101461.22;5090242;28;20115;-77
2022/10/14 02:33:57;;;;;;;49.05;26.92;;;;;;;23.66;45.66;101449.34;5090948;28;20132;-77
2022/10/14 02:36:24;;;;;;;56.20;30.65;;;;;;;23.45;46.59;101438.03;5090522;28;20494;-77
2022/10/14 02:38:53;;;;;;;59.97;30.52;;;;;;;23.95;45.51;101446.88;5089874;28;20085;-77
2022/10/14 02:41:21;;;;;;;53.30;30.00;;;;;;;24.07;44.87;101440.84;5090671;28;20020;-77
2022/10/14 02:43:47;;;;;;;62.50;31.48;;;;;;;23.76;45.76;101450.53;5092456;28;20028;-78
2022/10/14 02:46:13;;;;;;;61.47;31.25;;;;;;;23.80;45.83;101438.75;5091590;28;20024;-77
2022/10/14 02:48:38;;;;;;;62.75;32.30;;;;;;;23.45;46.58;101430.91;5089508;28;20123;-77
2022/10/14 02:51:04;;;;;;;63.50;32.03;;;;;;;23.47;46.32;101433.50;5091171;28;20020;-78
2022/10/14 02:53:29;;;;;;;64.20;34.00;;;;;;;23.50;46.79;101425.31;5090834;28;20055;-77
2022/10/14 02:55:55;;;;;;;75.57;35.53;;;;;;;23.28;47.33;101415.81;5090354;28;20392;-77
2022/10/14 02:58:20;;;;;;;66.50;34.15;;;;;;;23.16;47.63;101417.34;5089980;28;20137;-77
2022/10/14 03:00:48;;;;;;;78.32;37.15;;;;;;;23.04;48.77;101417.97;5089875;28;20030;-77
2022/10/14 03:03:13;;;;;;;78.22;37.35;;;;;;;23.37;47.88;101412.66;5090911;28;20020;-77
2022/10/14 03:05:39;;;;;;;84.95;38.63;;;;;;;23.23;48.04;101409.00;5091205;28;20020;-78
2022/10/14 03:08:04;;;;;;;76.80;35.53;;;;;;;23.14;48.43;101411.22;5090303;28;20039;-78
2022/10/14 03:10:30;;;;;;;78.65;36.75;;;;;;;23.67;47.42;101405.69;5089977;28;20024;-78
2022/10/14 03:12:55;;;;;;;79.57;37.50;;;;;;;23.77;46.89;101403.34;5090528;28;20028;-78
2022/10/14 03:15:21;;;;;;;77.25;37.55;;;;;;;23.72;47.19;101404.47;5090918;28;20383;-78
2022/10/14 03:17:46;;;;;;;84.05;35.90;;;;;;;23.55;47.38;101402.75;5090253;28;20048;-78
2022/10/14 03:20:11;;;;;;;82.10;37.25;;;;;;;24.03;46.18;101401.91;5091046;28;20111;-78
2022/10/14 03:22:37;;;;;;;73.88;35.20;;;;;;;23.78;47.33;101395.28;5089627;28;20032;-77
2022/10/14 03:25:03;;;;;;;80.45;37.90;;;;;;;23.64;47.43;101387.19;5091168;28;20024;-78
2022/10/14 03:27:28;;;;;;;83.65;36.58;;;;;;;23.16;48.18;101380.03;5091867;28;20084;-78
2022/10/14 03:29:54;;;;;;;74.82;35.25;;;;;;;23.33;48.51;101379.09;5089994;28;20024;-77
2022/10/14 03:32:19;;;;;;;81.35;37.03;;;;;;;23.76;47.48;101377.63;5090875;28;20115;-77
2022/10/14 03:34:45;;;;;;;83.35;37.78;;;;;;;23.47;47.62;101389.00;5090725;28;20016;-78
2022/10/14 03:37:10;;;;;;;77.20;35.75;;;;;;;23.27;48.49;101375.91;5088469;28;20523;-78
2022/10/14 03:39:35;;;;;;;73.85;35.60;;;;;;;23.37;48.58;101374.47;5088789;28;20024;-77
2022/10/14 03:42:02;;;;;;;70.40;35.78;;;;;;;23.74;47.86;101379.50;5091108;28;20498;-77
2022/10/14 03:44:28;;;;;;;78.00;35.70;;;;;;;23.73;48.06;101378.66;5088276;28;20021;-78
2022/10/14 03:46:53;;;;;;;78.97;36.50;;;;;;;23.96;47.32;101379.16;5090590;28;20141;-77
2022/10/14 03:49:18;;;;;;;79.80;35.45;;;;;;;24.18;46.07;101368.97;5090401;28;20146;-78
2022/10/14 03:51:44;;;;;;;79.82;35.40;;;;;;;24.00;46.67;101370.03;5090039;28;20028;-77
2022/10/14 03:54:09;;;;;;;78.55;35.33;;;;;;;23.91;46.98;101359.91;5089264;28;20051;-77
2022/10/14 03:56:35;;;;;;;83.28;36.30;;;;;;;23.78;47.38;101360.59;5089994;28;20492;-77
2022/10/14 03:59:00;;;;;;;85.55;35.58;;;;;;;23.46;48.72;101349.91;5090027;28;20498;-77
2022/10/14 04:01:25;;;;;;;91.30;35.75;;;;;;;23.78;47.77;101349.91;5092025;28;20078;-77
2022/10/14 04:03:51;;;;;;;93.22;36.45;;;;;;;23.20;48.71;101346.91;5089936;28;20031;-77
2022/10/14 04:06:16;;;;;;;90.68;35.58;;;;;;;23.33;48.62;101343.56;5091832;28;20020;-78
2022/10/14 04:08:42;;;;;;;97.05;40.22;;;;;;;23.45;48.54;101342.00;5092515;28;20038;-78
2022/10/14 04:11:08;;;;;;;106.45;38.22;;;;;;;23.79;48.05;101338.25;5094213;28;20507;-77
2022/10/14 04:13:35;;;;;;;99.38;38.70;;;;;;;23.72;48.25;101342.25;5093324;28;20036;-77
2022/10/14 04:16:06;;;;;;;98.35;37.70;;;;;;;23.73;48.07;101349.31;5095010;28;20495;-78
2022/10/14 04:18:32;;;;;;;96.50;36.70;;;;;;;23.50;48.41;101340.78;5092735;28;20472;-77
2022/10/14 04:21:03;;;;;;;101.10;37.65;;;;;;;23.78;47.54;101339.25;5093460;28;20461;-78
2022/10/14 04:23:28;;;;;;;93.82;35.65;;;;;;;22.69;50.24;101332.75;5093959;28;20024;-77
2022/10/14 04:25:54;;;;;;;96.25;36.15;;;;;;;23.48;49.21;101337.38;5090845;28;20043;-77
2022/10/14 04:28:20;;;;;;;105.57;38.42;;;;;;;23.25;49.71;101340.47;5093357;28;20032;-77
2022/10/14 04:30:45;;;;;;;103.72;36.83;;;;;;;23.20;49.74;101343.38;5094213;28;20081;-78
2022/10/14 04:33:11;;;;;;;90.40;34.85;;;;;;;22.96;50.13;101335.75;5093410;28;20027;-77
2022/10/14 04:35:36;;;;;;;91.22;34.13;;;;;;;23.29;50.74;101326.03;5093707;28;20016;-78
2022/10/14 04:38:01;;;;;;;100.80;35.17;;;;;;;23.50;49.57;101324.78;5093181;28;20069;-78
2022/10/14 04:40:27;;;;;;;98.18;34.35;;;;;;;23.19;50.40;101322.97;5092748;28;20054;-77
2022/10/14 04:42:57;;;;;;;75.22;32.15;;;;;;;22.84;50.07;101321.28;5094232;28;20019;-78
2022/10/14 04:45:24;;;;;;;80.68;31.58;;;;;;;23.28;50.21;101309.13;5093759;28;20063;-77
2022/10/14 04:47:49;;;;;;;81.55;32.90;;;;;;;23.30;50.10;101306.38;5091320;28;20418;-76
2022/10/14 04:50:15;;;;;;;73.50;30.88;;;;;;;22.52;52.79;101304.38;5093436;28;20034;-76
2022/10/14 04:52:41;;;;;;;80.25;31.58;;;;;;;22.81;50.98;101300.13;5092948;28;20147;-75
2022/10/14 04:55:06;;;;;;;70.00;29.63;;;;;;;23.60;49.41;101297.59;5092273;28;20114;-75
2022/10/14 04:57:32;;;;;;;69.50;29.60;;;;;;;22.96;52.22;101303.75;5090664;28;20127;-75
2022/10/14 04:59:57;;;;;;;71.70;28.65;;;;;;;23.60;49.86;101292.25;5092123;28;20027;-75
2022/10/14 05:02:23;;;;;;;66.88;28.50;;;;;;;23.45;50.53;101283.31;5092293;28;20027;-75
2022/10/14 05:04:48;;;;;;;68.60;28.50;;;;;;;23.40;50.31;101275.59;5092876;28;20024;-74
2022/10/14 05:07:14;;;;;;;58.38;25.98;;;;;;;23.63;49.10;101276.06;5092333;28;20526;-74
2022/10/14 05:09:39;;;;;;;56.17;25.00;;;;;;;23.11;52.13;101269.19;5092014;28;20431;-75
2022/10/14 05:12:05;;;;;;;54.30;24.80;;;;;;;23.08;51.37;101267.59;5091450;28;20413;-75
2022/10/14 05:14:30;;;;;;;63.03;25.15;;;;;;;23.58;49.31;101262.16;5093746;28;20030;-75
2022/10/14 05:16:55;;;;;;;49.92;24.85;;;;;;;23.47;49.90;101271.63;5091882;28;20092;-75
2022/10/14 05:19:21;;;;;;;50.97;24.30;;;;;;;22.92;51.37;101266.72;5092004;28;20480;-74
2022/10/14 05:21:46;;;;;;;50.67;23.45;;;;;;;23.09;50.57;101258.63;5091810;28;20047;-75
2022/10/14 05:24:12;;;;;;;47.15;21.88;;;;;;;23.61;49.34;101264.63;5090643;28;20548;-75
2022/10/14 05:26:37;;;;;;;48.33;22.33;;;;;;;22.91;52.60;101257.00;5092475;28;20024;-75
2022/10/14 05:29:03;;;;;;;42.03;21.20;;;;;;;23.78;48.95;101251.16;5088715;28;20020;-74
2022/10/14 05:31:29;;;;;;;38.03;21.88;;;;;;;23.87;49.44;101247.94;5091852;28;20024;-75
2022/10/14 05:33:54;;;;;;;40.30;19.67;;;;;;;23.73;49.45;101253.25;5093341;28;20391;-75
2022/10/14 05:36:19;;;;;;;37.13;19.98;;;;;;;23.06;51.58;101258.78;5094209;28;20036;-74
2022/10/14 05:38:45;;;;;;;34.88;18.95;;;;;;;22.90;51.80;101249.94;5091101;28;20020;-75
2022/10/14 05:41:10;;;;;;;32.58;18.58;;;;;;;22.84;51.98;101240.47;5092246;28;20088;-75
2022/10/14 05:43:36;;;;;;;36.33;18.88;;;;;;;22.59;53.37;101246.31;5090370;28;20028;-75
2022/10/14 05:46:01;;;;;;;34.90;18.55;;;;;;;22.73;52.74;101241.06;5091863;28;20244;-75
2022/10/14 05:48:26;;;;;;;38.60;19.33;;;;;;;23.27;51.33;101239.91;5091113;28;20506;-75
2022/10/14 05:50:52;;;;;;;40.50;19.58;;;;;;;23.17;51.17;101232.41;5090803;28;20095;-76
2022/10/14 05:53:17;;;;;;;35.00;19.98;;;;;;;23.47;51.00;101228.94;5091538;28;20047;-75
2022/10/14 05:55:43;;;;;;;34.00;18.25;;;;;;;23.51;51.06;101241.16;5091658;28;20174;-75
2022/10/14 05:58:08;;;;;;;40.50;19.83;;;;;;;23.83;50.42;101224.19;5089221;28;20036;-74
2022/10/14 06:00:33;;;;;;;36.88;19.25;;;;;;;23.84;49.82;101223.25;5092489;28;20027;-75
2022/10/14 06:02:59;;;;;;;34.78;18.92;;;;;;;23.84;49.31;101236.59;5087613;28;20383;-75
2022/10/14 06:05:25;;;;;;;32.65;18.30;;;;;;;22.85;52.34;101232.41;5090754;28;20046;-74
2022/10/14 06:07:50;;;;;;;32.03;18.42;;;;;;;23.37;51.44;101235.78;5091185;28;20036;-75
2022/10/14 06:10:15;;;;;;;33.08;19.30;;;;;;;23.92;50.00;101222.81;5090195;28;20028;-75
2022/10/14 06:12:41;;;;;;;39.65;19.50;;;;;;;23.96;48.93;101224.34;5093061;28;20028;-75
2022/10/14 06:15:06;;;;;;;32.55;18.42;;;;;;;23.28;51.97;101223.81;5092710;28;20035;-73
2022/10/14 06:17:32;;;;;;;30.02;17.70;;;;;;;22.93;51.29;101226.66;5090444;28;20467;-75
2022/10/14 06:19:58;;;;;;;37.75;19.00;;;;;;;23.67;50.94;101218.91;5088238;28;20488;-75
2022/10/14 06:22:23;;;;;;;33.60;18.45;;;;;;;23.33;50.56;101223.56;5088446;28;20139;-75
2022/10/14 06:24:48;;;;;;;33.20;17.50;;;;;;;23.51;50.85;101224.31;5092349;28;20035;-75
2022/10/14 06:27:14;;;;;;;32.45;17.95;;;;;;;23.95;49.89;101217.31;5089805;28;20028;-75
2022/10/14 06:29:39;;;;;;;34.28;18.15;;;;;;;23.81;50.42;101221.63;5103604;28;20038;-75
2022/10/14 06:32:06;;;;;;;36.13;18.60;;;;;;;24.17;49.53;101216.84;5091609;28;20035;-75
2022/10/14 06:34:32;;;;;;;31.90;16.85;;;;;;;24.40;48.80;101220.78;5081467;28;20035;-75
2022/10/14 06:36:58;;;;;;;31.15;17.45;;;;;;;23.95;50.10;101217.31;5090443;28;20403;-75
2022/10/14 06:39:24;;;;;;;32.83;17.42;;;;;;;23.49;51.19;101219.06;5090304;28;20042;-75
2022/10/14 06:41:49;;;;;;;30.63;16.85;;;;;;;24.17;49.46;101204.34;5080371;28;20031;-75
2022/10/14 06:44:15;;;;;;;31.17;17.20;;;;;;;24.21;48.96;101205.03;5089720;28;20031;-75
2022/10/14 06:46:41;;;;;;;29.20;16.95;;;;;;;23.75;49.97;101200.63;5088611;28;20030;-75
2022/10/14 06:49:07;;;;;;;29.98;16.80;;;;;;;23.74;50.03;101204.25;5094742;28;20028;-75
2022/10/14 06:51:32;;;;;;;29.50;16.30;;;;;;;24.43;48.96;101201.00;5077522;28;20043;-75
2022/10/14 06:53:58;;;;;;;30.50;16.20;;;;;;;23.84;50.67;101208.09;5086753;28;20447;-75
2022/10/14 06:56:23;;;;;;;38.95;17.42;;;;;;;23.55;51.36;101194.66;5088596;28;20028;-75
2022/10/14 06:58:52;;;;;;;32.45;15.93;;;;;;;23.11;53.31;101205.22;5086383;28;20031;-75
2022/10/14 07:01:18;;;;;;;33.20;17.45;;;;;;;23.60;51.97;101201.53;5087585;28;20032;-75
2022/10/14 07:03:43;;;;;;;35.38;17.83;;;;;;;23.03;54.03;101208.34;5084320;28;20114;-75
2022/10/14 07:06:08;;;;;;;34.13;18.05;;;;;;;23.48;52.95;101188.00;5090137;28;20020;-75
2022/10/14 07:08:34;;;;;;;38.20;18.90;;;;;;;22.75;55.70;101191.22;5089831;28;20023;-75
2022/10/14 07:11:00;;;;;;;42.05;19.35;;;;;;;23.23;53.04;101204.53;5090490;28;20042;-75
2022/10/14 07:13:26;;;;;;;45.35;19.67;;;;;;;24.07;50.69;101189.88;5090440;28;20073;-75
2022/10/14 07:15:51;;;;;;;40.53;19.23;;;;;;;22.93;54.09;101202.66;5089204;28;20027;-75
2022/10/14 07:18:17;;;;;;;44.38;18.77;;;;;;;23.66;52.82;101195.84;5090602;28;20024;-75
2022/10/14 07:20:42;;;;;;;37.28;18.65;;;;;;;23.85;51.90;101188.47;5090478;28;20038;-75
2022/10/14 07:23:08;;;;;;;39.60;18.75;;;;;;;23.17;54.78;101195.09;5090284;28;20383;-75
2022/10/14 07:25:33;;;;;;;39.22;18.38;;;;;;;23.77;52.72;101193.41;5086298;28;20028;-75
2022/10/14 07:27:59;;;;;;;42.20;18.92;;;;;;;24.10;51.86;101181.66;5090494;28;20016;-74
2022/10/14 07:30:25;;;;;;;43.92;19.27;;;;;;;23.70;52.21;101186.72;5089923;28;20024;-76
2022/10/14 07:32:50;;;;;;;45.55;19.50;;;;;;;23.70;52.76;101186.72;5090458;28;20046;-75
2022/10/14 07:35:17;;;;;;;44.80;19.42;;;;;;;23.85;52.64;101188.47;5089161;28;20079;-75
2022/10/14 07:37:43;;;;;;;48.67;20.92;;;;;;;22.82;56.38;101200.59;5090230;28;20039;-75
2022/10/14 07:40:10;;;;;;;53.25;21.45;;;;;;;23.18;55.25;101196.81;5091976;28;20391;-75
2022/10/14 07:42:35;;;;;;;57.05;23.52;;;;;;;23.59;53.94;101189.16;5093740;28;20024;-75
2022/10/14 07:45:01;;;;;;;55.65;22.38;;;;;;;23.19;54.60;101198.53;5087661;28;20027;-75
2022/10/14 07:47:26;;;;;;;65.15;23.95;;;;;;;22.46;59.28;101204.34;5075604;28;20027;-75
2022/10/14 07:49:52;;;;;;;67.30;24.55;;;;;;;23.71;54.57;101205.31;5074883;28;20139;-75
2022/10/14 07:52:18;;;;;;;64.45;25.88;;;;;;;23.27;55.34;101189.22;5084036;28;20066;-74
2022/10/14 07:54:44;;;;;;;72.82;26.98;;;;;;;22.69;57.26;101194.22;5083952;28;20024;-74
2022/10/14 07:57:11;;;;;;;74.22;26.83;;;;;;;23.34;54.87;101185.25;5092088;28;20107;-75
2022/10/14 07:59:36;;;;;;;71.00;26.70;;;;;;;23.19;56.55;101198.53;5098026;28;20080;-75
2022/10/14 08:02:03;;;;;;;70.32;27.00;;;;;;;23.29;57.03;101185.53;5114482;28;20023;-75
2022/10/14 08:04:28;;;;;;;76.88;28.08;;;;;;;23.41;55.83;101181.31;5100531;28;20032;-74
2022/10/14 08:06:54;;;;;;;89.70;30.05;;;;;;;23.60;56.06;101174.88;5094716;28;20074;-75
2022/10/14 08:09:19;;;;;;;91.72;30.08;;;;;;;23.30;56.19;101173.94;5093962;28;20396;-74
2022/10/14 08:11:45;;;;;;;79.22;29.45;;;;;;;22.97;57.01;101184.66;5093161;28;20020;-75
2022/10/14 08:14:11;;;;;;;77.18;27.80;;;;;;;22.28;60.26;101181.31;5093204;28;20047;-74
2022/10/14 08:16:36;;;;;;;77.75;29.45;;;;;;;23.24;57.35;101178.75;5098520;28;20036;-76
2022/10/14 08:19:11;;;;;;;89.55;30.50;;;;;;;23.78;55.88;101179.13;5099262;28;20562;-75
2022/10/14 08:21:36;;;;;;;83.80;29.60;;;;;;;23.96;53.55;101177.16;5103754;28;20089;-75
2022/10/14 08:24:02;;;;;;;85.90;29.65;;;;;;;23.19;57.69;101182.53;5092734;28;20110;-75
2022/10/14 08:26:29;;;;;;;92.57;29.60;;;;;;;23.76;55.72;101173.00;5093864;28;20032;-75
2022/10/14 08:28:56;;;;;;;75.72;28.95;;;;;;;22.91;57.64;101177.88;5094781;28;20026;-75
2022/10/14 08:31:21;;;;;;;74.05;26.70;;;;;;;23.30;57.14;101173.03;5093229;28;20035;-75
2022/10/14 08:33:47;;;;;;;73.22;27.48;;;;;;;23.79;56.55;101175.47;5092322;28;20028;-74
2022/10/14 08:36:14;;;;;;;77.70;28.30;;;;;;;22.68;59.08;101189.84;5092167;28;20043;-75
2022/10/14 08:38:40;;;;;;;73.07;28.20;;;;;;;23.19;57.42;101195.00;5093282;28;20051;-75
2022/10/14 08:41:11;;;;;;;74.13;27.25;;;;;;;23.23;57.25;101190.34;5092520;28;20023;-75
2022/10/14 08:44:14;;;;;;;74.47;28.80;;;;;;;23.29;57.23;101182.88;5093022;28;20097;-75
2022/10/14 08:46:46;;;;;;;78.97;28.20;;;;;;;23.26;57.54;101174.19;5091556;28;20063;-75
2022/10/14 08:49:30;;;;;;;64.18;27.70;;;;;;;23.14;58.70;101186.44;5092761;28;20031;-75
2022/10/14 08:52:14;;;;;;;74.93;31.60;;;;;;;23.31;58.19;101172.09;5071943;28;20048;-74
2022/10/14 08:54:43;;;;;;;66.50;27.88;;;;;;;23.31;56.56;101164.09;5075113;28;20414;-75
2022/10/14 08:57:22;;;;;;;64.18;25.70;;;;;;;23.16;58.04;101168.53;5091026;28;20069;-74
2022/10/14 08:59:47;;;;;;;64.13;29.33;;;;;;;23.24;58.80;101165.41;5089098;28;20365;-75
2022/10/14 09:02:25;;;;;;;63.75;26.92;;;;;;;23.14;59.76;101163.28;5112352;28;20126;-74
2022/10/14 09:04:50;;;;;;;69.30;28.60;;;;;;;23.87;55.97;101162.53;5103392;28;20024;-74
2022/10/14 09:07:18;;;;;;;68.65;28.25;;;;;;;23.57;56.91;101164.38;5090624;28;20023;-75
2022/10/14 09:09:48;;;;;;;64.80;26.80;;;;;;;23.35;58.91;101160.31;5091461;28;20027;-74
2022/10/14 09:12:20;;;;;;;61.33;25.50;;;;;;;23.50;56.14;101151.41;5092076;28;20024;-75
2022/10/14 09:14:53;;;;;;;63.50;26.25;;;;;;;23.81;56.40;101152.22;5076555;28;20031;-75
2022/10/14 09:17:23;;;;;;;66.45;26.63;;;;;;;24.38;52.99;101146.06;5075488;28;20111;-75
2022/10/14 09:20:07;;;;;;;54.85;25.20;;;;;;;23.58;56.60;101148.28;5084225;28;20101;-75
2022/10/14 09:22:33;;;;;;;57.78;24.77;;;;;;;23.97;56.85;101151.31;5075689;28;20491;-75
2022/10/14 09:25:00;;;;;;;55.45;24.10;;;;;;;23.76;54.81;101146.31;5108143;27;20641;-75
2022/10/14 09:27:28;;;;;;;54.30;24.48;;;;;;;23.77;58.47;101140.03;5087887;28;20035;-75
2022/10/14 09:30:03;;;;;;;46.15;24.10;;;;;;;23.53;56.76;101142.34;5097600;27;20031;-75
2022/10/14 09:32:33;;;;;;;52.33;24.35;;;;;;;23.74;56.46;101144.69;5093769;28;20020;-75
2022/10/14 09:34:59;;;;;;;46.38;23.58;;;;;;;23.76;58.03;101148.13;5092596;28;20019;-75
2022/10/14 09:37:34;;;;;;;44.90;21.60;;;;;;;23.86;56.58;101150.16;5086050;28;20396;-75
2022/10/14 09:40:09;;;;;;;39.33;21.38;;;;;;;24.40;56.05;101140.63;5087939;28;20099;-75
2022/10/14 09:43:08;;;;;;;35.47;20.52;;;;;;;24.03;57.20;101154.47;5089036;28;20467;-75
2022/10/14 09:45:57;;;;;;;39.83;20.13;;;;;;;23.33;58.77;101154.22;5086977;28;20024;-75
2022/10/14 09:48:22;;;;;;;34.63;19.95;;;;;;;24.02;55.63;101146.56;5083104;28;20044;-75
2022/10/14 09:50:52;;;;;;;33.83;19.63;;;;;;;23.60;59.60;101133.03;5076693;28;20037;-75
2022/10/14 09:53:27;;;;;;;34.40;20.42;;;;;;;23.90;56.65;101147.31;5078447;28;20040;-75
2022/10/14 09:56:04;;;;;;;33.83;19.45;;;;;;;23.98;58.29;101131.69;5116305;27;20717;-75
2022/10/14 09:58:42;;;;;;;29.40;18.23;;;;;;;24.90;53.35;101136.50;5074339;28;20750;-75
2022/10/14 10:01:18;;;;;;;28.23;17.65;;;;;;;24.63;54.23;101138.31;5084664;28;20054;-75
2022/10/14 10:03:45;;;;;;;30.15;19.13;;;;;;;24.17;56.60;101140.25;5096443;28;20065;-74
2022/10/14 10:06:13;;;;;;;25.70;17.33;;;;;;;23.00;63.57;101150.72;5077079;28;20031;-74
2022/10/14 10:08:59;;;;;;;24.38;17.05;;;;;;;23.70;59.12;101136.88;5075633;28;20032;-74
2022/10/14 10:11:36;;;;;;;22.13;15.35;;;;;;;23.37;61.52;101137.94;5098241;28;20237;-73
2022/10/14 10:14:21;;;;;;;21.17;15.68;;;;;;;23.45;60.38;101145.50;5073581;28;20164;-75
2022/10/14 10:16:48;;;;;;;25.58;15.35;;;;;;;23.91;59.12;101141.03;5071149;28;20048;-75
2022/10/14 10:19:30;;;;;;;19.73;14.40;;;;;;;23.58;60.58;101139.44;5084157;28;20437;-75
2022/10/14 10:22:16;;;;;;;20.85;14.18;;;;;;;24.07;58.56;101139.13;5083287;28;20103;-75
2022/10/14 10:24:43;;;;;;;18.15;13.73;;;;;;;23.21;61.15;101139.78;5076834;28;20496;-75
2022/10/14 10:27:26;;;;;;;18.00;13.43;;;;;;;23.76;60.21;101132.13;5079556;28;20043;-74
2022/10/14 10:29:55;;;;;;;;;;;;;;;23.71;58.71;101141.25;5084428;28;20034;-75
2022/10/14 10:32:29;;;;;;;19.25;12.52;;;;;;;22.51;63.28;101141.00;5075591;28;20356;-75
2022/10/14 10:34:57;;;;;;;17.58;13.52;;;;;;;24.89;54.63;101132.16;5090137;28;20016;-74
2022/10/14 10:37:27;;;;;;;18.80;12.77;;;;;;;23.73;57.00;101127.81;5087532;28;20105;-75
2022/10/14 10:40:26;;;;;;;16.45;12.85;;;;;;;24.04;58.36;101128.63;5086645;28;20028;-74
2022/10/14 10:43:18;;;;;;;19.98;13.95;;;;;;;24.61;55.20;101119.72;5081993;28;20032;-74
2022/10/14 10:45:43;;;;;;;16.27;12.20;;;;;;;22.20;65.92;101123.16;5079471;28;20039;-74
2022/10/14 10:48:19;;;;;;;17.27;13.05;;;;;;;24.11;58.90;101119.31;5079933;28;20035;-74
2022/10/14 10:51:10;;;;;;;16.52;12.23;;;;;;;24.12;57.58;101117.47;5076264;28;20488;-74
2022/10/14 10:53:54;;;;;;;17.30;12.98;;;;;;;23.36;63.40;101119.38;5086933;28;20066;-74
2022/10/14 10:56:47;;;;;;;17.13;12.73;;;;;;;23.98;59.48;101105.00;5082414;28;20016;-74
2022/10/14 10:59:32;;;;;;;17.90;12.20;;;;;;;24.11;57.70;101111.28;5077077;28;20019;-74
2022/10/14 11:02:28;;;;;;;14.93;10.77;;;;;;;22.59;68.38;101123.78;5084539;28;20036;-74
2022/10/14 11:05:04;;;;;;;15.25;10.73;;;;;;;22.61;65.79;101113.88;5087128;28;20055;-74
2022/10/14 11:13:54;;;;;;;14.27;11.02;;;;;;;22.73;64.59;101099.84;5089329;28;20085;-74
2022/10/14 11:16:33;;;;;;;13.13;9.40;;;;;;;22.93;62.39;101093.41;5079289;28;20040;-74
2022/10/14 11:19:17;;;;;;;12.43;9.30;;;;;;;23.36;61.03;101087.38;5076057;28;20035;-74
2022/10/14 11:21:45;;;;;;;14.50;9.38;;;;;;;23.50;61.46;101079.38;5080589;28;20028;-74
2022/10/14 11:24:32;;;;;;;14.23;9.38;;;;;;;23.49;60.62;101079.47;5098007;27;20771;-74
2022/10/14 11:27:22;;;;;;;15.00;9.85;;;;;;;23.87;59.98;101076.25;5105692;27;20047;-75